createdAt,value
2022-11-25T00:02:17.767Z,5.99
2022-11-25T00:04:47.017Z,6.04
2022-11-25T00:07:16.244Z,6.11
2022-11-25T00:09:45.425Z,6.16
2022-11-25T00:12:14.562Z,6.24
2022-11-25T00:14:45.106Z,6.16
2022-11-25T00:17:14.314Z,6.15
2022-11-25T00:19:43.660Z,6.17
2022-11-25T00:22:12.831Z,6.21
2022-11-25T00:24:41.994Z,6.15
2022-11-25T00:27:11.158Z,6.11
2022-11-25T00:29:40.732Z,6.17
2022-11-25T00:32:11.515Z,6.19
2022-11-25T00:34:40.824Z,6.14
2022-11-25T00:37:10.230Z,6.14
2022-11-25T00:39:40.638Z,6.00
2022-11-25T00:42:29.150Z,6.06
2022-11-25T00:44:58.793Z,6.06
2022-11-25T00:47:29.845Z,6.01
2022-11-25T00:49:59.042Z,6.00
2022-11-25T00:52:28.832Z,5.92
2022-11-25T00:54:58.049Z,5.98
2022-11-25T00:57:27.560Z,5.97
2022-11-25T00:59:56.627Z,6.00
2022-11-25T01:02:26.654Z,5.97
2022-11-25T01:04:58.609Z,5.93
2022-11-25T01:07:28.227Z,6.06
2022-11-25T01:09:57.782Z,6.09
2022-11-25T01:12:27.764Z,6.11
2022-11-25T01:14:57.604Z,6.18
2022-11-25T01:17:26.751Z,6.16
2022-11-25T01:19:57.986Z,6.15
2022-11-25T01:22:27.189Z,6.06
2022-11-25T01:24:56.361Z,6.19
2022-11-25T01:27:25.487Z,6.23
2022-11-25T01:29:57.400Z,6.19
2022-11-25T01:32:26.519Z,6.19
2022-11-25T01:34:55.611Z,6.19
2022-11-25T01:37:27.809Z,6.16
2022-11-25T01:39:57.128Z,6.10
2022-11-25T01:42:31.718Z,6.16
2022-11-25T01:45:39.175Z,6.24
2022-11-25T01:48:16.274Z,6.23
2022-11-25T01:50:47.322Z,6.21
2022-11-25T01:53:20.806Z,6.17
2022-11-25T01:55:54.909Z,6.14
2022-11-25T01:58:30.351Z,6.26
2022-11-25T02:00:59.866Z,6.27
2022-11-25T02:03:34.620Z,6.28
2022-11-25T02:06:10.700Z,6.25
2022-11-25T02:08:43.547Z,6.32
2022-11-25T02:11:14.177Z,6.32
2022-11-25T02:13:44.277Z,6.32
2022-11-25T02:16:13.471Z,6.30
2022-11-25T02:18:42.819Z,6.28
2022-11-25T02:21:11.953Z,6.26
2022-11-25T02:23:50.731Z,6.37
2022-11-25T02:26:26.921Z,6.29
2022-11-25T02:28:56.710Z,6.28
2022-11-25T02:31:26.795Z,6.22
2022-11-25T02:33:56.131Z,6.08
2022-11-25T02:36:25.802Z,6.15
2022-11-25T02:38:59.652Z,6.21
2022-11-25T02:41:36.162Z,6.29
2022-11-25T02:44:08.112Z,6.21
2022-11-25T02:46:37.982Z,6.23
2022-11-25T02:49:09.270Z,6.23
2022-11-25T02:51:40.938Z,6.23
2022-11-25T02:54:12.491Z,6.16
2022-11-25T02:56:44.241Z,6.17
2022-11-25T02:59:13.981Z,6.23
2022-11-25T03:01:43.269Z,6.19
2022-11-25T03:04:13.147Z,6.18
2022-11-25T03:06:42.375Z,6.12
2022-11-25T03:09:11.909Z,6.11
2022-11-25T03:12:00.029Z,6.03
2022-11-25T03:14:29.221Z,6.08
2022-11-25T03:16:58.480Z,6.10
2022-11-25T03:19:29.438Z,6.16
2022-11-25T03:21:58.688Z,6.10
2022-11-25T03:24:28.160Z,6.13
2022-11-25T03:26:58.887Z,6.08
2022-11-25T03:29:28.027Z,6.07
2022-11-25T03:31:57.827Z,5.97
2022-11-25T03:34:27.117Z,5.89
2022-11-25T03:36:57.431Z,5.88
2022-11-25T03:39:29.184Z,5.88
2022-11-25T03:41:59.898Z,5.80
2022-11-25T03:44:29.047Z,5.76
2022-11-25T03:46:58.190Z,5.84
2022-11-25T03:49:27.916Z,5.88
2022-11-25T03:51:57.347Z,5.83
2022-11-25T03:54:26.694Z,5.81
2022-11-25T03:57:21.529Z,5.79
2022-11-25T03:59:50.911Z,5.79
2022-11-25T04:02:21.169Z,5.70
2022-11-25T04:04:52.265Z,5.73
2022-11-25T04:07:21.539Z,5.71
2022-11-25T04:09:50.777Z,5.75
2022-11-25T04:12:42.417Z,5.77
2022-11-25T04:15:12.052Z,5.61
2022-11-25T04:17:42.772Z,5.65
2022-11-25T04:20:13.409Z,5.59
2022-11-25T04:23:00.610Z,5.66
2022-11-25T04:25:30.571Z,5.58
2022-11-25T04:28:01.607Z,5.63
2022-11-25T04:30:35.493Z,5.63
2022-11-25T04:33:05.791Z,5.64
2022-11-25T04:35:35.600Z,5.75
2022-11-25T04:38:05.428Z,5.68
2022-11-25T04:40:37.644Z,5.64
2022-11-25T04:43:17.067Z,5.64
2022-11-25T04:48:47.751Z,5.68
2022-11-25T04:51:18.180Z,5.69
2022-11-25T04:53:49.568Z,5.57
2022-11-25T04:56:20.589Z,5.62
2022-11-25T04:59:11.735Z,5.58
2022-11-25T05:01:52.110Z,5.62
2022-11-25T05:04:42.275Z,5.63
2022-11-25T05:07:13.178Z,5.54
2022-11-25T05:09:44.183Z,5.56
2022-11-25T05:12:22.089Z,5.56
2022-11-25T05:14:52.788Z,5.49
2022-11-25T05:17:25.013Z,5.53
2022-11-25T05:19:55.118Z,5.57
2022-11-25T05:22:28.170Z,5.57
2022-11-25T05:24:58.459Z,5.52
2022-11-25T05:27:28.769Z,5.55
2022-11-25T05:30:03.105Z,5.54
2022-11-25T05:32:33.731Z,5.57
2022-11-25T05:35:06.983Z,5.63
2022-11-25T05:37:54.377Z,5.62
2022-11-25T05:40:33.605Z,5.65
2022-11-25T05:43:07.494Z,5.63
2022-11-25T05:45:41.843Z,5.66
2022-11-25T05:48:13.074Z,5.72
2022-11-25T05:50:42.541Z,5.73
2022-11-25T05:53:41.771Z,5.80
2022-11-25T05:56:12.737Z,5.69
2022-11-25T05:59:03.045Z,5.71
2022-11-25T06:01:46.079Z,5.79
2022-11-25T06:04:21.670Z,5.70
2022-11-25T06:06:51.158Z,5.79
2022-11-25T06:09:20.565Z,5.79
2022-11-25T06:11:49.883Z,5.79
2022-11-25T06:14:20.386Z,5.75
2022-11-25T06:16:53.689Z,5.89
2022-11-25T06:19:29.443Z,5.81
2022-11-25T06:21:58.637Z,5.84
2022-11-25T06:24:30.547Z,5.88
2022-11-25T06:27:05.182Z,5.86
2022-11-25T06:29:36.125Z,5.80
2022-11-25T06:32:07.320Z,5.83
2022-11-25T06:34:54.019Z,5.88
2022-11-25T06:37:38.196Z,5.88
2022-11-25T06:40:09.493Z,5.84
2022-11-25T06:42:40.939Z,5.79
2022-11-25T06:45:11.792Z,5.84
2022-11-25T06:47:42.676Z,5.84
2022-11-25T06:50:14.832Z,5.89
2022-11-25T06:52:43.941Z,5.92
2022-11-25T06:55:13.222Z,5.99
2022-11-25T06:57:42.502Z,5.91
2022-11-25T07:00:12.400Z,6.06
2022-11-25T07:02:48.913Z,6.14
2022-11-25T07:05:19.167Z,6.13
2022-11-25T07:07:50.983Z,6.34
2022-11-25T07:10:24.364Z,6.38
2022-11-25T07:12:53.757Z,6.79
2022-11-25T07:15:23.171Z,7.19
2022-11-25T07:17:56.885Z,7.51
2022-11-25T07:20:28.106Z,7.80
2022-11-25T07:22:58.290Z,7.90
2022-11-25T07:25:30.923Z,8.03
2022-11-25T07:28:01.135Z,8.18
2022-11-25T07:31:21.720Z,8.41
2022-11-25T07:33:21.164Z,8.37
2022-11-25T07:35:50.373Z,8.66
2022-11-25T07:38:19.646Z,8.64
2022-11-25T07:40:50.838Z,8.72
2022-11-25T07:43:20.039Z,8.70
2022-11-25T07:45:49.925Z,8.85
2022-11-25T07:48:20.771Z,8.90
2022-11-25T07:50:50.441Z,9.15
2022-11-25T07:53:19.644Z,9.27
2022-11-25T07:55:48.955Z,9.38
2022-11-25T07:58:18.347Z,9.69
2022-11-25T08:00:47.695Z,9.39
2022-11-25T08:03:17.194Z,9.13
2022-11-25T08:05:48.446Z,8.92
2022-11-25T08:08:18.031Z,8.90
2022-11-25T08:11:00.914Z,8.89
2022-11-25T08:13:30.078Z,8.72
2022-11-25T08:16:01.230Z,8.40
2022-11-25T08:18:30.851Z,8.25
2022-11-25T08:21:04.036Z,7.86
2022-11-25T08:23:33.478Z,7.94
2022-11-25T08:26:34.993Z,7.78
2022-11-25T08:29:27.232Z,8.20
2022-11-25T08:31:57.017Z,8.29
2022-11-25T08:34:41.834Z,8.52
2022-11-25T08:37:15.661Z,8.30
2022-11-25T08:39:53.951Z,8.29
2022-11-25T08:42:23.480Z,8.13
2022-11-25T08:45:01.429Z,8.07
2022-11-25T08:47:33.128Z,8.03
2022-11-25T08:50:02.504Z,7.86
2022-11-25T08:52:33.377Z,7.69
2022-11-25T08:55:02.860Z,7.60
2022-11-25T08:57:32.626Z,7.53
2022-11-25T09:00:02.254Z,7.55
2022-11-25T09:02:33.457Z,7.45
2022-11-25T09:05:02.833Z,7.46
2022-11-25T09:07:34.123Z,7.38
2022-11-25T09:10:04.531Z,7.34
2022-11-25T09:12:33.846Z,7.45
2022-11-25T09:15:03.091Z,7.45
2022-11-25T09:17:34.802Z,7.82
2022-11-25T09:20:05.548Z,7.96
2022-11-25T09:22:36.343Z,8.43
2022-11-25T09:25:06.164Z,8.97
2022-11-25T09:27:35.926Z,9.38
2022-11-25T09:30:05.964Z,9.60
2022-11-25T09:32:35.141Z,9.66
2022-11-25T09:35:05.020Z,10.00
2022-11-25T09:37:36.160Z,10.21
2022-11-25T09:40:06.294Z,10.51
2022-11-25T09:43:10.569Z,10.31
2022-11-25T09:46:06.953Z,10.26
2022-11-25T09:48:57.396Z,10.67
2022-11-25T09:51:36.465Z,10.49
2022-11-25T09:54:16.411Z,10.72
2022-11-25T09:56:54.117Z,10.68
2022-11-25T09:59:30.486Z,10.65
2022-11-25T10:02:16.337Z,10.49
2022-11-25T10:04:54.097Z,10.27
2022-11-25T10:07:30.345Z,10.24
2022-11-25T10:10:08.178Z,10.33
2022-11-25T10:12:44.259Z,10.39
2022-11-25T10:15:20.552Z,10.33
2022-11-25T10:17:54.173Z,10.18
2022-11-25T10:20:27.409Z,10.34
2022-11-25T10:23:07.731Z,10.22
2022-11-25T10:25:41.459Z,10.31
2022-11-25T10:28:19.718Z,10.28
2022-11-25T10:30:55.968Z,10.40
2022-11-25T10:33:29.699Z,10.05
2022-11-25T10:36:06.791Z,10.29
2022-11-25T10:38:42.946Z,9.93
2022-11-25T10:41:17.738Z,9.42
2022-11-25T10:43:48.255Z,9.07
2022-11-25T10:46:43.692Z,8.91
2022-11-25T10:49:29.099Z,8.55
2022-11-25T10:51:59.199Z,8.22
2022-11-25T10:54:31.506Z,8.27
2022-11-25T10:57:03.612Z,8.23
2022-11-25T10:59:34.858Z,8.17
2022-11-25T11:02:22.810Z,8.13
2022-11-25T11:05:00.909Z,8.01
2022-11-25T11:07:33.447Z,8.27
2022-11-25T11:10:24.300Z,8.06
2022-11-25T11:13:00.312Z,8.03
2022-11-25T11:15:31.795Z,8.13
2022-11-25T11:18:15.484Z,8.09
2022-11-25T11:20:48.782Z,7.95
2022-11-25T11:23:19.083Z,7.85
2022-11-25T11:26:05.310Z,7.86
2022-11-25T11:28:43.969Z,7.75
2022-11-25T11:31:21.358Z,7.81
2022-11-25T11:34:00.318Z,7.72
2022-11-25T11:36:43.686Z,7.68
2022-11-25T11:39:23.360Z,7.68
2022-11-25T11:41:57.147Z,7.77
2022-11-25T11:44:36.540Z,7.82
2022-11-25T11:47:20.277Z,7.89
2022-11-25T11:50:23.593Z,8.01
2022-11-25T11:53:13.045Z,8.20
2022-11-25T11:56:19.021Z,8.17
2022-11-25T11:59:20.568Z,8.21
2022-11-25T12:02:20.344Z,8.42
2022-11-25T12:05:04.043Z,8.51
2022-11-25T12:07:38.448Z,8.62
2022-11-25T12:10:18.899Z,8.53
2022-11-25T12:12:57.518Z,8.23
2022-11-25T12:15:59.394Z,8.20
2022-11-25T12:18:47.466Z,8.12
2022-11-25T12:21:40.193Z,8.21
2022-11-25T12:24:20.785Z,8.09
2022-11-25T12:26:57.531Z,8.03
2022-11-25T12:29:37.069Z,8.21
2022-11-25T12:32:28.974Z,8.19
2022-11-25T12:35:06.495Z,8.31
2022-11-25T12:37:46.467Z,8.23
2022-11-25T12:40:20.581Z,8.25
2022-11-25T12:42:51.270Z,8.14
2022-11-25T12:45:24.622Z,8.21
2022-11-25T12:47:54.997Z,8.35
2022-11-25T12:50:41.149Z,8.37
2022-11-25T12:53:45.249Z,8.37
2022-11-25T12:56:21.185Z,8.45
2022-11-25T12:59:05.344Z,8.33
2022-11-25T13:01:59.834Z,8.18
2022-11-25T13:05:18.493Z,8.34
2022-11-25T13:08:02.221Z,8.29
2022-11-25T13:10:50.468Z,8.21
2022-11-25T13:13:52.164Z,8.26
2022-11-25T13:16:26.499Z,8.32
2022-11-25T13:18:59.861Z,8.32
2022-11-25T13:21:29.456Z,8.36
2022-11-25T13:24:00.476Z,8.37
2022-11-25T13:26:50.564Z,8.38
2022-11-25T13:30:16.271Z,8.10
2022-11-25T13:32:46.416Z,8.30
2022-11-25T13:35:40.084Z,8.24
2022-11-25T13:38:27.812Z,8.22
2022-11-25T13:54:01.963Z,8.43
2022-11-25T13:56:34.593Z,8.17
2022-11-25T13:59:37.669Z,7.92
2022-11-25T14:02:32.950Z,7.72
2022-11-25T14:25:54.002Z,8.00
2022-11-25T14:28:31.170Z,7.70
2022-11-25T14:31:06.798Z,7.55
2022-11-25T14:33:39.822Z,7.33
2022-11-25T14:36:13.615Z,7.32
2022-11-25T14:38:50.972Z,7.25
2022-11-25T14:41:25.917Z,7.27
2022-11-25T14:44:00.121Z,7.21
2022-11-25T14:46:32.591Z,7.16
2022-11-25T14:49:05.189Z,7.22
2022-11-25T14:51:39.491Z,7.17
2022-11-25T14:54:10.420Z,7.14
2022-11-25T14:56:42.165Z,7.15
2022-11-25T14:59:17.637Z,7.03
2022-11-25T15:01:55.373Z,6.96
2022-11-25T15:04:27.079Z,6.88
2022-11-25T15:07:01.032Z,6.83
2022-11-25T15:09:32.284Z,6.86
2022-11-25T15:12:05.712Z,6.80
2022-11-25T15:14:37.415Z,6.71
2022-11-25T15:17:09.474Z,6.69
2022-11-25T15:19:39.277Z,6.71
2022-11-25T15:22:24.772Z,6.75
2022-11-25T15:24:56.366Z,6.74
2022-11-25T15:27:29.145Z,6.74
2022-11-25T15:29:59.243Z,6.77
2022-11-25T15:32:30.064Z,6.73
2022-11-25T15:35:01.306Z,6.67
2022-11-25T15:37:32.442Z,6.65
2022-11-25T15:40:33.549Z,6.67
2022-11-25T15:43:07.115Z,6.67
2022-11-25T15:45:43.860Z,6.57
2022-11-25T15:48:18.828Z,6.65
2022-11-25T15:50:47.843Z,6.60
2022-11-25T15:53:30.189Z,6.62
2022-11-25T15:56:03.059Z,6.51
2022-11-25T15:58:33.767Z,6.56
2022-11-25T16:01:06.303Z,6.58
2022-11-25T16:03:36.208Z,6.59
2022-11-25T16:06:21.452Z,6.56
2022-11-25T16:08:55.909Z,6.60
2022-11-25T16:11:33.732Z,6.56
2022-11-25T16:14:27.294Z,6.45
2022-11-25T16:17:01.699Z,6.46
2022-11-25T16:19:37.813Z,6.42
2022-11-25T16:22:08.062Z,6.45
2022-11-25T16:24:57.306Z,6.46
2022-11-25T16:27:31.815Z,6.41
2022-11-25T16:30:19.959Z,6.38
2022-11-25T16:32:49.489Z,6.43
2022-11-25T16:35:22.363Z,6.37
2022-11-25T16:37:51.894Z,6.36
2022-11-25T16:40:21.064Z,6.37
2022-11-25T16:42:53.615Z,6.32
2022-11-25T16:45:26.439Z,6.36
2022-11-25T16:47:55.844Z,6.27
2022-11-25T16:50:25.428Z,6.28
2022-11-25T16:52:54.682Z,6.20
2022-11-25T16:55:25.140Z,6.12
2022-11-25T16:57:54.631Z,6.13
2022-11-25T17:00:26.515Z,6.13
2022-11-25T17:02:55.931Z,6.10
2022-11-25T17:05:27.383Z,6.12
2022-11-25T17:07:56.716Z,6.10
2022-11-25T17:10:25.943Z,6.09
2022-11-25T17:12:55.033Z,6.09
2022-11-25T17:15:34.050Z,6.16
2022-11-25T17:18:05.436Z,6.13
2022-11-25T17:20:37.036Z,6.11
2022-11-25T17:23:14.520Z,6.06
2022-11-25T17:25:47.563Z,6.00
2022-11-25T17:28:17.425Z,6.03
2022-11-25T17:30:49.442Z,5.99
2022-11-25T17:33:21.856Z,5.93
2022-11-25T17:35:50.819Z,6.00
2022-11-25T17:38:26.976Z,5.87
2022-11-25T17:40:57.433Z,5.87
2022-11-25T17:43:31.664Z,5.87
2022-11-25T17:46:05.612Z,5.83
2022-11-25T17:48:36.138Z,5.78
2022-11-25T17:51:07.873Z,5.74
2022-11-25T17:53:40.005Z,5.76
2022-11-25T17:56:20.542Z,5.67
2022-11-25T17:58:50.618Z,5.67
2022-11-25T18:01:21.773Z,5.72
2022-11-25T18:03:53.485Z,5.73
2022-11-25T18:06:23.667Z,5.79
2022-11-25T18:08:52.768Z,5.78
2022-11-25T18:11:23.229Z,5.77
2022-11-25T18:14:02.860Z,5.78
2022-11-25T18:16:35.735Z,5.77
2022-11-25T18:19:19.238Z,5.81
2022-11-25T18:22:01.715Z,5.78
2022-11-25T18:24:30.683Z,5.72
2022-11-25T18:27:00.163Z,5.68
2022-11-25T18:29:30.016Z,5.63
2022-11-25T18:32:00.803Z,5.57
2022-11-25T18:34:30.059Z,5.62
2022-11-25T18:36:59.164Z,5.51
2022-11-25T18:39:28.421Z,5.52
2022-11-25T18:42:00.101Z,5.44
2022-11-25T18:44:30.398Z,5.55
2022-11-25T18:47:01.330Z,5.60
2022-11-25T18:49:33.605Z,5.57
2022-11-25T18:52:02.716Z,5.58
2022-11-25T18:54:31.738Z,5.57
2022-11-25T18:57:00.892Z,5.61
2022-11-25T18:59:35.128Z,5.55
2022-11-25T19:02:16.337Z,5.60
2022-11-25T19:04:46.049Z,5.46
2022-11-25T19:07:15.301Z,5.42
2022-11-25T19:09:44.380Z,5.51
2022-11-25T19:12:22.002Z,5.42
2022-11-25T19:14:52.897Z,5.40
2022-11-25T19:17:26.352Z,5.46
2022-11-25T19:19:55.369Z,5.43
2022-11-25T19:22:25.142Z,5.40
2022-11-25T19:24:57.874Z,5.42
2022-11-25T19:27:28.077Z,5.45
2022-11-25T19:29:57.531Z,5.43
2022-11-25T19:32:31.070Z,5.47
2022-11-25T19:35:04.443Z,5.40
2022-11-25T19:37:33.857Z,5.36
2022-11-25T19:40:08.193Z,5.28
2022-11-25T19:42:37.326Z,5.25
2022-11-25T19:45:07.476Z,5.19
2022-11-25T19:47:39.101Z,5.23
2022-11-25T19:50:09.778Z,5.24
2022-11-25T19:52:41.482Z,5.22
2022-11-25T19:55:16.194Z,5.22
2022-11-25T19:57:45.986Z,5.26
2022-11-25T20:00:23.818Z,5.30
2022-11-25T20:02:56.870Z,5.23
2022-11-25T20:05:30.581Z,5.17
2022-11-25T20:08:00.233Z,5.17
2022-11-25T20:10:32.618Z,5.15
2022-11-25T20:13:01.959Z,5.13
2022-11-25T20:15:31.162Z,5.05
2022-11-25T20:18:03.085Z,5.02
2022-11-25T20:20:36.183Z,5.03
2022-11-25T20:23:09.621Z,5.04
2022-11-25T20:25:48.491Z,4.88
2022-11-25T20:28:20.109Z,4.91
2022-11-25T20:30:52.614Z,4.93
2022-11-25T20:33:24.961Z,4.93
2022-11-25T20:36:01.202Z,4.87
2022-11-25T20:38:32.982Z,4.97
2022-11-25T20:41:02.829Z,4.90
2022-11-25T20:43:33.614Z,4.79
2022-11-25T20:46:04.385Z,4.69
2022-11-25T20:48:38.383Z,4.65
2022-11-25T20:51:14.746Z,4.61
2022-11-25T20:53:48.243Z,4.51
2022-11-25T20:56:18.256Z,4.42
2022-11-25T20:58:48.307Z,4.36
2022-11-25T21:01:20.524Z,4.32
2022-11-25T21:03:52.291Z,4.17
2022-11-25T21:06:23.370Z,4.24
2022-11-25T21:08:54.727Z,4.19
2022-11-25T21:11:25.172Z,4.34
2022-11-25T21:13:54.768Z,4.08
2022-11-25T21:16:25.807Z,4.16
2022-11-25T21:19:06.365Z,4.13
2022-11-25T21:21:37.642Z,4.24
2022-11-25T21:24:13.958Z,4.13
2022-11-25T21:26:43.391Z,4.10
2022-11-25T21:29:17.206Z,4.20
2022-11-25T21:31:46.715Z,4.23
2022-11-25T21:34:20.783Z,4.28
2022-11-25T21:36:53.109Z,4.35
2022-11-25T21:39:31.689Z,4.42
2022-11-25T21:42:10.197Z,4.44
2022-11-25T21:44:41.602Z,4.48
2022-11-25T21:47:15.021Z,4.53
2022-11-25T21:49:46.298Z,4.67
2022-11-25T21:52:16.743Z,4.71
2022-11-25T21:54:46.836Z,4.59
2022-11-25T21:57:17.890Z,4.47
2022-11-25T21:59:48.348Z,4.31
2022-11-25T22:02:19.910Z,4.11
2022-11-25T22:04:50.908Z,4.00
2022-11-25T22:07:25.093Z,3.88
2022-11-25T22:09:57.341Z,3.86
2022-11-25T22:12:30.236Z,3.82
2022-11-25T22:15:01.092Z,3.79
2022-11-25T22:17:32.843Z,3.74
2022-11-25T22:20:04.679Z,3.75
2022-11-25T22:22:34.285Z,3.75
2022-11-25T22:25:04.349Z,3.75
2022-11-25T22:27:37.796Z,3.72
2022-11-25T22:30:08.317Z,3.76
2022-11-25T22:32:37.340Z,3.82
2022-11-25T22:35:15.434Z,3.79
2022-11-25T22:37:44.687Z,3.68
2022-11-25T22:40:14.935Z,3.78
2022-11-25T22:42:48.042Z,3.83
2022-11-25T22:45:20.073Z,3.63
2022-11-25T22:47:49.808Z,3.70
2022-11-25T22:50:24.946Z,3.70
2022-11-25T22:52:55.616Z,3.60
2022-11-25T22:55:26.489Z,3.70
2022-11-25T22:57:57.223Z,3.55
2022-11-25T23:00:28.292Z,3.71
2022-11-25T23:03:00.726Z,3.74
2022-11-25T23:05:34.002Z,3.76
2022-11-25T23:08:11.343Z,3.75
2022-11-25T23:10:40.445Z,3.80
2022-11-25T23:13:09.510Z,3.82
2022-11-25T23:15:38.619Z,3.85
2022-11-25T23:18:15.603Z,3.84
2022-11-25T23:20:46.120Z,3.89
2022-11-25T23:23:17.584Z,3.91
2022-11-25T23:25:47.483Z,3.84
2022-11-25T23:28:16.707Z,3.86
2022-11-25T23:30:50.447Z,3.79
2022-11-25T23:33:23.581Z,3.78
2022-11-25T23:35:54.358Z,3.70
2022-11-25T23:38:26.115Z,3.72
2022-11-25T23:40:55.305Z,3.59
2022-11-25T23:43:24.433Z,3.58
2022-11-25T23:45:56.310Z,3.54
2022-11-25T23:48:29.559Z,3.43
2022-11-25T23:51:00.760Z,3.44
2022-11-25T23:53:33.855Z,3.33
2022-11-25T23:56:03.065Z,3.31
2022-11-25T23:58:32.773Z,3.32
